Time;durP1;ratioP1;P1;durP2;ratioP2;P2;SDS_P1;SDS_P2;PMS_P1;PMS_P2;Temp;Humidity;BMP_temperature;BMP_pressure;BME280_temperature;BME280_humidity;BME280_pressure;Samples;Min_cycle;Max_cycle;Signal;HPM_P1;HPM_P2
2022/01/08 00:00:36;;;;;;;14.60;1.75;;;;;;;0.87;68.70;147888.75;1656342;84;21869;-62
2022/01/08 00:03:02;;;;;;;5.62;2.20;;;;;;;0.92;68.93;147901.63;1656608;86;21018;-62
2022/01/08 00:05:29;;;;;;;19.07;2.40;;;;;;;0.93;68.94;147904.19;1656415;86;21103;-63
2022/01/08 00:07:55;;;;;;;15.23;2.30;;;;;;;0.94;68.99;147906.77;1656713;84;21530;-63
2022/01/08 00:10:22;;;;;;;17.27;2.20;;;;;;;0.95;68.90;147909.33;1657226;85;21084;-62
2022/01/08 00:12:52;;;;;;;4.90;2.27;;;;;;;0.95;68.49;147909.33;1658363;85;21143;-63
2022/01/08 00:15:18;;;;;;;7.65;1.82;;;;;;;0.95;68.33;147909.33;1658549;85;21100;-63
2022/01/08 00:17:45;;;;;;;19.32;2.30;;;;;;;0.96;68.14;147911.91;1658218;85;21458;-62
2022/01/08 00:20:13;;;;;;;17.87;2.30;;;;;;;0.97;68.13;147914.48;1658479;86;20992;-62
2022/01/08 00:22:40;;;;;;;15.45;2.15;;;;;;;0.97;68.09;147914.48;1658742;86;21640;-62
2022/01/08 00:25:08;;;;;;;9.00;2.10;;;;;;;0.98;67.87;147918.37;1658626;86;21597;-61
2022/01/08 00:27:35;;;;;;;20.25;2.27;;;;;;;0.98;67.81;147917.06;1658381;86;21613;-61
2022/01/08 00:30:02;;;;;;;21.30;2.90;;;;;;;0.97;68.08;147914.48;1659039;86;20886;-62
2022/01/08 00:32:29;;;;;;;12.50;2.22;;;;;;;0.97;68.44;147914.48;1658665;86;21036;-59
2022/01/08 00:34:55;;;;;;;17.77;2.05;;;;;;;0.97;68.72;147914.48;1658624;86;21061;-59
2022/01/08 00:37:22;;;;;;;19.82;2.60;;;;;;;0.98;69.18;147918.37;1658479;86;21033;-60
2022/01/08 00:39:48;;;;;;;27.95;2.50;;;;;;;1.03;69.53;147928.66;1658439;86;21494;-60
2022/01/08 00:42:15;;;;;;;21.25;2.70;;;;;;;1.05;69.86;147935.13;1658633;86;21031;-59
2022/01/08 00:44:42;;;;;;;27.73;2.90;;;;;;;1.07;70.33;147938.95;1658283;86;21121;-59
2022/01/08 00:47:09;;;;;;;22.93;2.75;;;;;;;1.06;70.62;147937.69;1658584;86;21017;-57
2022/01/08 00:49:37;;;;;;;6.92;2.22;;;;;;;1.07;70.87;147938.95;1658194;85;22191;-57
2022/01/08 00:52:05;;;;;;;8.20;2.10;;;;;;;1.07;70.94;147938.95;1658446;86;21364;-57
2022/01/08 00:54:32;;;;;;;10.50;2.37;;;;;;;1.09;70.26;147944.11;1658475;86;21386;-58
2022/01/08 00:56:59;;;;;;;4.83;1.98;;;;;;;1.16;69.80;147960.86;1658709;85;21096;-57
2022/01/08 00:59:26;;;;;;;5.83;1.75;;;;;;;1.17;69.30;147963.44;1658378;86;20988;-62
2022/01/08 01:01:52;;;;;;;14.03;2.58;;;;;;;1.16;68.57;147962.17;1658579;85;21883;-62
2022/01/08 01:04:19;;;;;;;27.73;3.02;;;;;;;1.17;68.47;147963.44;1658395;86;21108;-58
2022/01/08 01:06:45;;;;;;;6.00;1.95;;;;;;;1.17;68.68;147963.44;1658833;86;21075;-63
2022/01/08 01:09:12;;;;;;;14.63;2.65;;;;;;;1.16;68.83;147960.86;1658533;86;21533;-63
2022/01/08 01:11:39;;;;;;;15.10;2.20;;;;;;;1.16;68.95;147960.86;1658325;85;21060;-62
2022/01/08 01:14:07;;;;;;;5.67;1.92;;;;;;;1.16;69.09;147960.86;1658613;86;21024;-63
2022/01/08 01:16:35;;;;;;;13.45;2.45;;;;;;;1.15;69.07;147959.59;1658270;86;21049;-63
2022/01/08 01:19:03;;;;;;;12.20;2.40;;;;;;;1.13;69.02;147954.45;1658930;86;21340;-62
2022/01/08 01:21:30;;;;;;;9.63;2.27;;;;;;;1.13;69.14;147955.72;1658436;86;21578;-62
2022/01/08 01:23:58;;;;;;;4.80;2.20;;;;;;;1.12;69.59;147953.14;1658768;85;21037;-62
2022/01/08 01:26:28;;;;;;;11.20;2.70;;;;;;;1.13;70.75;147955.72;1658375;86;21155;-63
2022/01/08 01:29:02;;;;;;;10.50;2.35;;;;;;;1.17;71.45;147964.75;1658556;85;21024;-58
2022/01/08 01:42:13;;;;;;;7.30;3.55;;;;;;;1.18;72.29;147967.31;1658685;85;20410;-59
2022/01/08 01:47:34;;;;;;;14.75;2.98;;;;;;;1.17;71.16;147963.44;1629969;88;21585;-62
2022/01/08 01:50:01;;;;;;;17.70;2.40;;;;;;;1.17;71.10;147964.75;1658959;86;20970;-62
2022/01/08 01:52:28;;;;;;;8.85;2.33;;;;;;;1.19;71.14;147968.59;1631480;87;21533;-62
2022/01/08 01:54:55;;;;;;;16.45;3.30;;;;;;;1.20;71.38;147971.16;1658647;86;21092;-63
2022/01/08 01:57:21;;;;;;;5.60;2.42;;;;;;;1.20;71.64;147971.16;1658709;86;21142;-63
2022/01/08 01:59:48;;;;;;;3.45;2.02;;;;;;;1.20;71.40;147971.16;1630244;86;21539;-58
2022/01/08 02:02:14;;;;;;;4.40;1.92;;;;;;;1.20;71.04;147971.16;1630466;87;21090;-58
2022/01/08 02:04:41;;;;;;;5.05;2.30;;;;;;;1.20;70.99;147972.47;1630157;88;21149;-62
2022/01/08 02:07:08;;;;;;;7.12;2.52;;;;;;;1.21;71.03;147975.05;1630698;86;20930;-58
2022/01/08 02:09:37;;;;;;;3.92;2.17;;;;;;;1.24;70.79;147981.50;1630053;88;21616;-59
2022/01/08 02:12:17;;;;;;;6.83;2.80;;;;;;;1.27;70.10;147989.23;1627336;86;21025;-58
2022/01/08 02:14:38;;;;;;;5.85;2.70;;;;;;;1.31;69.98;147999.53;1653908;86;21021;-61
2022/01/08 02:17:06;;;;;;;4.65;1.87;;;;;;;1.34;69.96;148007.25;1627024;86;21217;-62
2022/01/08 02:19:33;;;;;;;4.03;2.17;;;;;;;1.36;69.61;148012.39;1626724;88;21065;-58
2022/01/08 02:22:02;;;;;;;3.65;2.20;;;;;;;1.36;69.59;148012.39;1627177;86;21022;-62
2022/01/08 02:24:30;;;;;;;5.42;2.30;;;;;;;1.37;69.29;148013.72;1644803;87;21128;-58
2022/01/08 02:26:56;;;;;;;3.40;1.80;;;;;;;1.36;69.42;148012.39;1644916;85;21539;-58
2022/01/08 02:29:24;;;;;;;4.80;2.08;;;;;;;1.34;69.00;148007.25;1626738;88;21301;-61
2022/01/08 02:32:09;;;;;;;4.08;2.12;;;;;;;1.33;69.13;148004.67;1626798;86;21124;-61
2022/01/08 02:34:38;;;;;;;5.25;1.85;;;;;;;1.32;70.08;148000.78;1626444;86;21064;-62
2022/01/08 02:37:06;;;;;;;3.12;1.75;;;;;;;1.31;70.44;147999.53;1645281;85;21520;-63
2022/01/08 02:39:38;;;;;;;9.75;1.98;;;;;;;1.31;70.21;147999.53;1644492;85;21092;-62
2022/01/08 02:42:02;;;;;;;5.12;2.00;;;;;;;1.29;70.18;147995.64;1644430;87;21162;-58
2022/01/08 02:44:29;;;;;;;2.95;2.12;;;;;;;1.28;70.50;147991.80;1644979;87;21016;-62
2022/01/08 02:46:56;;;;;;;3.45;2.30;;;;;;;1.28;71.31;147991.80;1650286;85;21102;-58
2022/01/08 02:49:23;;;;;;;3.55;1.62;;;;;;;1.28;71.68;147991.80;1650238;87;21072;-58
2022/01/08 02:51:51;;;;;;;3.60;1.77;;;;;;;1.29;72.41;147994.38;1650023;85;21080;-61
2022/01/08 02:54:18;;;;;;;6.25;1.80;;;;;;;1.29;72.48;147994.38;1626691;86;21959;-62
2022/01/08 02:56:46;;;;;;;3.00;1.67;;;;;;;1.29;72.27;147994.38;1626633;88;21700;-62
2022/01/08 02:59:13;;;;;;;8.88;2.00;;;;;;;1.29;73.20;147994.38;1644891;87;21399;-62
2022/01/08 03:01:40;;;;;;;3.02;1.82;;;;;;;1.31;73.26;147999.53;1644598;87;21512;-62
2022/01/08 03:04:07;;;;;;;3.50;1.82;;;;;;;1.32;72.75;148002.09;1644639;85;21119;-62
2022/01/08 03:06:35;;;;;;;4.37;1.70;;;;;;;1.32;72.40;148000.78;1644327;87;21194;-62
2022/01/08 03:09:03;;;;;;;4.90;2.22;;;;;;;1.31;72.44;147999.53;1644547;87;20974;-62
2022/01/08 03:11:29;;;;;;;2.55;1.87;;;;;;;1.30;72.46;147996.95;1656043;84;21060;-61
2022/01/08 03:13:56;;;;;;;3.77;1.98;;;;;;;1.29;72.60;147994.38;1666248;86;21570;-62
2022/01/08 03:16:22;;;;;;;3.15;1.67;;;;;;;1.27;72.82;147990.50;1665904;86;21072;-62
2022/01/08 03:18:49;;;;;;;7.17;1.92;;;;;;;1.27;72.98;147989.23;1666161;84;21809;-57
2022/01/08 03:21:18;;;;;;;4.40;2.12;;;;;;;1.25;72.93;147984.08;1665798;84;21592;-61
2022/01/08 03:23:53;;;;;;;6.40;1.98;;;;;;;1.24;73.21;147982.77;1635643;85;21043;-63
2022/01/08 03:26:19;;;;;;;5.78;2.10;;;;;;;1.24;73.60;147981.50;1665850;86;21032;-58
2022/01/08 03:28:46;;;;;;;2.65;1.70;;;;;;;1.22;73.67;147977.63;1666401;84;21051;-57
2022/01/08 03:31:13;;;;;;;3.75;2.00;;;;;;;1.20;73.95;147972.47;1666520;84;21158;-57
2022/01/08 03:33:41;;;;;;;3.42;1.98;;;;;;;1.20;74.47;147971.16;1666291;84;21494;-57
2022/01/08 03:36:07;;;;;;;2.00;1.57;;;;;;;1.22;75.42;147976.36;1666816;84;21462;-62
2022/01/08 03:38:34;;;;;;;3.50;1.98;;;;;;;1.22;75.92;147976.36;1666086;85;21545;-61
2022/01/08 03:41:01;;;;;;;3.10;1.95;;;;;;;1.21;75.29;147973.73;1666519;84;21502;-62
2022/01/08 03:43:27;;;;;;;5.80;1.67;;;;;;;1.22;75.33;147976.36;1666105;84;21161;-62
2022/01/08 03:45:54;;;;;;;8.13;2.10;;;;;;;1.20;75.60;147971.16;1666509;84;21530;-62
2022/01/08 03:48:45;;;;;;;3.60;1.90;;;;;;;1.23;76.45;147978.94;1666401;84;21036;-58
2022/01/08 03:51:02;;;;;;;3.17;1.77;;;;;;;1.22;76.92;147976.36;1664158;84;21025;-57
2022/01/08 03:53:31;;;;;;;2.75;1.72;;;;;;;1.21;76.95;147973.73;1666135;84;21350;-58
2022/01/08 03:55:57;;;;;;;6.20;2.35;;;;;;;1.20;76.62;147971.16;1666586;86;21213;-58
2022/01/08 03:58:25;;;;;;;9.93;2.10;;;;;;;1.20;77.22;147971.16;1666477;86;21112;-58
2022/01/08 04:00:52;;;;;;;6.10;2.90;;;;;;;1.18;77.33;147967.31;1666335;84;21123;-58
2022/01/08 04:03:18;;;;;;;6.30;2.20;;;;;;;1.19;77.26;147968.59;1666221;85;20917;-62
2022/01/08 04:05:50;;;;;;;5.12;2.30;;;;;;;1.19;77.95;147968.59;1666372;84;21621;-58
2022/01/08 04:08:17;;;;;;;6.28;2.45;;;;;;;1.19;78.40;147969.89;1666381;85;21551;-57
2022/01/08 04:10:44;;;;;;;5.30;2.52;;;;;;;1.19;78.54;147968.59;1666977;84;21048;-59
2022/01/08 04:13:20;;;;;;;4.20;2.15;;;;;;;1.18;78.63;147966.02;1702856;84;20980;-58
2022/01/08 04:15:43;;;;;;;3.52;2.20;;;;;;;1.19;78.61;147968.59;1700764;83;21052;-58
2022/01/08 04:18:09;;;;;;;5.08;1.87;;;;;;;1.19;77.74;147968.59;1702763;84;21565;-63
2022/01/08 04:20:48;;;;;;;2.95;2.00;;;;;;;1.19;76.55;147968.59;1702307;83;21128;-61
2022/01/08 04:23:06;;;;;;;6.87;2.10;;;;;;;1.20;76.14;147971.16;1700676;84;21415;-57
2022/01/08 04:25:32;;;;;;;6.00;2.15;;;;;;;1.20;75.67;147971.16;1702573;84;21095;-57
2022/01/08 04:27:59;;;;;;;7.08;2.30;;;;;;;1.22;75.72;147976.36;1702871;83;21036;-57
2022/01/08 04:30:26;;;;;;;3.30;1.70;;;;;;;1.21;74.90;147975.05;1702458;83;21119;-62
2022/01/08 04:32:52;;;;;;;6.10;2.40;;;;;;;1.21;74.67;147973.73;1702598;83;22130;-63
2022/01/08 04:35:19;;;;;;;3.98;2.17;;;;;;;1.23;75.34;147978.94;1702544;84;21494;-62
2022/01/08 04:37:46;;;;;;;5.67;2.40;;;;;;;1.24;75.64;147982.77;1702551;84;21045;-63
2022/01/08 04:40:13;;;;;;;7.08;2.52;;;;;;;1.25;74.71;147984.08;1702947;83;20981;-63
2022/01/08 04:42:40;;;;;;;5.45;2.00;;;;;;;1.26;74.66;147986.66;1702651;84;21003;-63
2022/01/08 04:45:08;;;;;;;6.55;2.25;;;;;;;1.26;74.76;147986.66;1702928;84;21543;-63
2022/01/08 04:47:36;;;;;;;8.30;2.60;;;;;;;1.26;75.22;147987.91;1702619;84;21454;-61
2022/01/08 04:50:05;;;;;;;4.37;2.12;;;;;;;1.27;74.98;147990.50;1703046;83;21004;-60
2022/01/08 04:52:33;;;;;;;5.97;2.40;;;;;;;1.28;74.55;147993.06;1702866;84;21472;-59
2022/01/08 04:55:00;;;;;;;7.17;2.52;;;;;;;1.29;74.85;147994.38;1702806;83;21017;-57
2022/01/08 04:57:26;;;;;;;5.95;2.72;;;;;;;1.30;74.36;147996.95;1702587;83;21824;-57
2022/01/08 04:59:55;;;;;;;7.30;3.40;;;;;;;1.29;74.06;147994.38;1702687;84;21067;-59
2022/01/08 05:02:21;;;;;;;9.20;3.47;;;;;;;1.29;73.56;147995.64;1701509;83;21055;-59
2022/01/08 05:04:48;;;;;;;4.83;2.87;;;;;;;1.31;74.46;147999.53;1702848;83;21096;-63
2022/01/08 05:07:14;;;;;;;7.75;3.12;;;;;;;1.31;75.53;147999.53;1702701;83;20956;-58
2022/01/08 05:09:41;;;;;;;9.35;3.20;;;;;;;1.30;75.72;147996.95;1702447;83;21869;-62
2022/01/08 05:12:09;;;;;;;3.80;2.33;;;;;;;1.29;74.42;147994.38;1698790;83;21048;-62
2022/01/08 05:14:35;;;;;;;4.72;2.70;;;;;;;1.29;74.60;147994.38;1695220;84;21591;-62
2022/01/08 05:17:02;;;;;;;6.22;3.00;;;;;;;1.29;75.34;147994.38;1695782;84;21024;-58
2022/01/08 05:19:49;;;;;;;6.87;2.92;;;;;;;1.28;75.69;147991.80;1694903;84;21120;-62
2022/01/08 05:22:22;;;;;;;7.45;3.35;;;;;;;1.29;75.99;147994.38;1694185;84;22004;-58
2022/01/08 05:24:41;;;;;;;10.00;3.50;;;;;;;1.29;75.81;147994.38;1692505;83;21608;-59
2022/01/08 05:27:10;;;;;;;6.35;3.42;;;;;;;1.29;76.23;147994.38;1694694;84;21041;-58
2022/01/08 05:29:36;;;;;;;8.45;3.25;;;;;;;1.30;75.94;147996.95;1694407;83;21549;-61
2022/01/08 05:32:04;;;;;;;8.73;3.12;;;;;;;1.31;76.22;147998.22;1694946;83;21088;-62
2022/01/08 05:34:31;;;;;;;10.13;3.92;;;;;;;1.32;76.48;148002.09;1694559;84;21730;-62
2022/01/08 05:36:58;;;;;;;8.25;3.70;;;;;;;1.34;76.20;148007.25;1695017;83;21111;-63
2022/01/08 05:39:24;;;;;;;9.05;2.77;;;;;;;1.36;75.58;148012.39;1694123;84;22160;-63
2022/01/08 05:41:51;;;;;;;10.28;2.80;;;;;;;1.38;74.66;148017.55;1694855;84;21079;-58
2022/01/08 05:44:18;;;;;;;12.23;3.55;;;;;;;1.40;74.80;148021.44;1694944;83;21029;-62
2022/01/08 05:49:21;;;;;;;7.53;3.37;;;;;;;1.53;75.42;148053.64;1821306;78;22589;-58
2022/01/08 05:51:47;;;;;;;5.12;2.65;;;;;;;1.50;74.68;148045.91;1783135;80;20969;-61
2022/01/08 05:54:15;;;;;;;7.80;3.50;;;;;;;1.51;74.95;148048.50;1783348;80;21131;-59
2022/01/08 05:56:41;;;;;;;8.50;3.37;;;;;;;1.52;75.31;148051.06;1782886;80;21481;-58
2022/01/08 05:59:08;;;;;;;6.80;3.30;;;;;;;1.52;75.93;148051.06;1783505;79;20854;-57
2022/01/08 06:01:36;;;;;;;10.55;3.42;;;;;;;1.54;76.30;148056.22;1783105;80;21439;-62
2022/01/08 06:04:03;;;;;;;6.78;3.33;;;;;;;1.54;76.86;148056.22;1783480;80;20945;-62
2022/01/08 06:06:30;;;;;;;8.38;3.30;;;;;;;1.55;77.15;148058.78;1783285;80;21407;-58
2022/01/08 06:08:57;;;;;;;8.28;3.72;;;;;;;1.56;76.93;148061.37;1783442;79;20917;-58
2022/01/08 06:11:24;;;;;;;5.37;3.40;;;;;;;1.56;77.55;148062.69;1783329;80;20965;-62
2022/01/08 06:13:50;;;;;;;8.88;3.92;;;;;;;1.57;78.31;148065.25;1783057;80;20976;-61
2022/01/08 06:16:17;;;;;;;8.03;3.67;;;;;;;1.57;78.87;148065.25;1783112;80;20916;-59
2022/01/08 06:18:44;;;;;;;7.58;3.60;;;;;;;1.59;79.29;148069.09;1783070;80;21656;-57
2022/01/08 06:21:10;;;;;;;12.98;3.72;;;;;;;1.60;79.44;148071.66;1783045;80;21273;-58
2022/01/08 06:23:39;;;;;;;10.70;4.08;;;;;;;1.60;80.53;148071.66;1782950;79;20983;-57
2022/01/08 06:26:06;;;;;;;6.33;2.90;;;;;;;1.62;80.59;148076.81;1783340;80;21000;-58
2022/01/08 06:28:33;;;;;;;6.37;3.45;;;;;;;1.63;79.61;148079.39;1782704;79;21123;-58
2022/01/08 06:31:00;;;;;;;5.70;2.87;;;;;;;1.64;79.17;148080.70;1783526;79;21728;-59
2022/01/08 06:33:26;;;;;;;7.62;3.17;;;;;;;1.66;79.17;148087.17;1782697;79;21005;-58
2022/01/08 06:35:52;;;;;;;6.67;3.00;;;;;;;1.67;78.65;148089.75;1783022;80;21083;-58
2022/01/08 06:38:19;;;;;;;7.65;3.20;;;;;;;1.71;78.87;148100.05;1783058;80;20954;-58
2022/01/08 06:40:46;;;;;;;9.10;3.67;;;;;;;1.74;78.68;148106.45;1782988;79;21444;-58
2022/01/08 06:43:12;;;;;;;8.98;3.17;;;;;;;1.79;79.08;148118.06;1783387;80;21115;-58
2022/01/08 06:45:39;;;;;;;10.48;3.17;;;;;;;1.82;79.26;148125.80;1782701;80;21021;-58
2022/01/08 06:48:06;;;;;;;6.97;2.83;;;;;;;1.85;79.30;148134.84;1785188;79;21046;-58
2022/01/08 06:50:33;;;;;;;6.90;3.22;;;;;;;1.89;79.27;148143.88;1788636;80;21095;-58
2022/01/08 06:53:00;;;;;;;5.30;2.67;;;;;;;1.91;79.37;148149.03;1789166;80;20993;-58
2022/01/08 06:55:40;;;;;;;5.37;2.72;;;;;;;1.95;79.00;148158.02;1763291;80;22173;-58
2022/01/08 06:58:07;;;;;;;9.55;3.02;;;;;;;1.98;78.82;148165.75;1763760;80;21477;-58
2022/01/08 07:00:33;;;;;;;10.95;3.25;;;;;;;2.00;78.58;148172.22;1762611;80;21024;-58
2022/01/08 07:03:02;;;;;;;6.20;3.00;;;;;;;2.05;79.00;148183.83;1763020;80;20948;-58
2022/01/08 07:05:29;;;;;;;9.48;3.22;;;;;;;2.10;79.42;148195.41;1731204;82;21026;-58
2022/01/08 07:07:56;;;;;;;12.13;3.60;;;;;;;2.14;79.63;148207.02;1724836;83;21151;-57
2022/01/08 07:10:22;;;;;;;5.47;3.12;;;;;;;2.19;79.94;148218.62;1700658;83;21075;-58
2022/01/08 07:12:49;;;;;;;9.95;3.20;;;;;;;2.24;80.08;148231.52;1724424;81;21445;-58
2022/01/08 07:15:15;;;;;;;8.45;3.50;;;;;;;2.29;79.88;148244.39;1700681;84;20974;-58
2022/01/08 07:17:42;;;;;;;7.75;3.15;;;;;;;2.37;79.50;148262.48;1724318;83;21023;-58
2022/01/08 07:20:11;;;;;;;8.93;3.00;;;;;;;2.42;79.23;148275.36;1700337;83;22373;-58
2022/01/08 07:22:37;;;;;;;6.35;2.87;;;;;;;2.48;79.17;148290.83;1723965;81;21086;-58
2022/01/08 07:25:05;;;;;;;12.30;3.33;;;;;;;2.53;79.05;148303.70;1700473;84;20881;-59
2022/01/08 07:27:32;;;;;;;9.00;2.72;;;;;;;2.54;78.68;148306.34;1724418;83;20980;-57
2022/01/08 07:30:05;;;;;;;7.80;2.92;;;;;;;2.54;78.34;148305.02;1700741;83;20930;-61
2022/01/08 07:32:32;;;;;;;12.25;2.90;;;;;;;2.51;78.40;148297.30;1724679;81;21061;-58
2022/01/08 07:34:59;;;;;;;7.53;3.33;;;;;;;2.48;78.53;148290.83;1700663;84;21102;-58
2022/01/08 07:37:25;;;;;;;11.03;3.02;;;;;;;2.45;78.61;148283.09;1723789;83;21440;-58
2022/01/08 07:39:52;;;;;;;7.10;2.80;;;;;;;2.40;78.85;148271.47;1700362;84;21138;-58
2022/01/08 07:42:19;;;;;;;6.03;3.35;;;;;;;2.40;79.38;148270.20;1724356;83;20917;-59
2022/01/08 07:44:45;;;;;;;8.30;3.50;;;;;;;2.42;79.86;148275.36;1700336;83;21106;-58
2022/01/08 07:47:12;;;;;;;8.45;3.42;;;;;;;2.45;79.80;148283.09;1724357;83;20905;-58
2022/01/08 07:49:39;;;;;;;11.75;3.80;;;;;;;2.50;79.91;148295.97;1700404;83;21005;-58
2022/01/08 07:52:06;;;;;;;9.10;3.90;;;;;;;2.54;80.36;148305.02;1731422;82;20966;-58
2022/01/08 07:54:33;;;;;;;10.18;4.20;;;;;;;2.58;80.74;148316.64;1715900;82;21147;-59
2022/01/08 07:57:00;;;;;;;7.78;3.83;;;;;;;2.65;80.82;148332.11;1694119;83;21905;-59
2022/01/08 07:59:26;;;;;;;7.65;4.12;;;;;;;2.72;80.67;148350.16;1736823;82;21001;-58
2022/01/08 08:01:53;;;;;;;21.12;4.70;;;;;;;2.82;80.88;148374.66;1736647;82;22048;-58
2022/01/08 08:04:20;;;;;;;10.55;4.22;;;;;;;2.90;80.86;148394.02;1736513;82;20970;-59
2022/01/08 08:06:49;;;;;;;10.08;4.92;;;;;;;2.95;80.64;148406.91;1736512;81;21080;-60
2022/01/08 08:09:17;;;;;;;7.97;4.30;;;;;;;2.94;80.51;148405.64;1736594;81;21408;-60
2022/01/08 08:11:44;;;;;;;9.55;4.83;;;;;;;2.93;80.81;148401.75;1736416;82;21008;-59
2022/01/08 08:14:10;;;;;;;12.73;4.83;;;;;;;2.90;81.25;148395.33;1737084;82;20851;-60
2022/01/08 08:16:37;;;;;;;13.40;4.80;;;;;;;2.86;82.34;148386.28;1736175;82;20956;-63
2022/01/08 08:19:04;;;;;;;9.90;4.87;;;;;;;2.83;82.78;148377.23;1736997;82;20863;-62
2022/01/08 08:21:30;;;;;;;12.23;5.72;;;;;;;2.83;82.92;148378.55;1736076;81;21834;-62
2022/01/08 08:23:57;;;;;;;17.82;5.78;;;;;;;2.84;83.39;148381.12;1736740;81;21570;-62
2022/01/08 08:26:23;;;;;;;12.90;5.03;;;;;;;2.80;83.26;148370.81;1736084;82;20996;-62
2022/01/08 08:28:50;;;;;;;15.50;5.50;;;;;;;2.80;83.71;148370.81;1736410;81;20969;-62
2022/01/08 08:31:17;;;;;;;9.85;4.87;;;;;;;2.80;84.18;148369.50;1736509;82;20931;-63
2022/01/08 08:33:43;;;;;;;12.73;4.67;;;;;;;2.82;84.13;148374.66;1736239;81;21045;-61
2022/01/08 08:36:10;;;;;;;8.48;4.33;;;;;;;2.85;84.48;148383.70;1736247;81;21423;-62
2022/01/08 08:38:37;;;;;;;11.48;5.20;;;;;;;2.90;84.57;148394.02;1735897;82;21079;-62
2022/01/08 08:41:03;;;;;;;10.55;4.33;;;;;;;2.92;84.49;148399.17;1736427;82;20905;-62
2022/01/08 08:43:30;;;;;;;13.18;4.90;;;;;;;2.94;84.97;148404.33;1736221;81;21423;-62
2022/01/08 08:45:57;;;;;;;8.80;4.33;;;;;;;2.92;84.72;148400.48;1736402;82;21148;-63
2022/01/08 08:48:23;;;;;;;9.68;4.20;;;;;;;2.94;85.15;148404.33;1736068;82;21742;-63
2022/01/08 08:50:50;;;;;;;14.65;6.12;;;;;;;2.95;84.97;148406.91;1736318;82;21001;-62
2022/01/08 08:53:16;;;;;;;11.83;4.70;;;;;;;2.95;85.37;148408.22;1736224;82;20911;-62
2022/01/08 08:55:43;;;;;;;14.68;4.90;;;;;;;2.98;85.33;148414.64;1735506;80;21075;-63
2022/01/08 08:58:10;;;;;;;10.98;5.33;;;;;;;2.99;85.03;148417.27;1735844;82;21765;-62
2022/01/08 09:00:37;;;;;;;11.83;4.80;;;;;;;2.97;84.62;148412.06;1735311;82;21108;-63
2022/01/08 09:03:04;;;;;;;10.65;4.75;;;;;;;2.99;84.57;148417.27;1736004;82;21403;-61
2022/01/08 09:05:30;;;;;;;9.55;5.33;;;;;;;2.99;84.17;148417.27;1735224;82;21004;-63
2022/01/08 09:07:57;;;;;;;11.15;5.05;;;;;;;2.96;84.48;148410.80;1735897;82;21041;-63
2022/01/08 09:10:25;;;;;;;11.38;5.30;;;;;;;2.95;84.95;148406.91;1735826;82;21823;-63
2022/01/08 09:12:53;;;;;;;26.62;6.00;;;;;;;2.94;85.22;148405.64;1735829;82;20973;-63
2022/01/08 09:15:25;;;;;;;15.83;5.35;;;;;;;2.95;85.26;148406.91;1735849;82;21002;-63
2022/01/08 09:17:56;;;;;;;10.82;5.70;;;;;;;2.97;85.61;148412.06;1735883;82;21080;-63
2022/01/08 09:20:23;;;;;;;11.28;5.75;;;;;;;2.98;85.93;148414.64;1735764;82;21064;-62
2022/01/08 09:22:49;;;;;;;13.10;6.75;;;;;;;2.97;85.89;148412.06;1735774;82;21759;-63
2022/01/08 09:25:16;;;;;;;12.98;5.87;;;;;;;2.93;86.00;148403.06;1735915;82;21443;-62
2022/01/08 09:27:42;;;;;;;12.63;5.97;;;;;;;2.92;86.46;148400.48;1735586;82;21045;-62
2022/01/08 09:30:09;;;;;;;12.40;5.80;;;;;;;2.94;86.49;148404.33;1735908;82;21376;-62
2022/01/08 09:32:37;;;;;;;10.60;5.58;;;;;;;2.97;86.45;148412.06;1735398;82;21041;-62
2022/01/08 09:35:25;;;;;;;14.80;5.60;;;;;;;3.01;86.58;148422.42;1736085;82;21150;-62
2022/01/08 09:37:53;;;;;;;11.18;5.50;;;;;;;3.06;86.52;148435.31;1703204;84;21027;-63
2022/01/08 09:40:21;;;;;;;15.43;5.80;;;;;;;3.06;86.12;148435.31;1703466;84;21011;-63
2022/01/08 09:42:49;;;;;;;14.05;6.20;;;;;;;3.07;86.17;148437.89;1703060;82;21022;-63
2022/01/08 09:45:16;;;;;;;12.18;5.90;;;;;;;3.10;86.39;148445.62;1703579;84;21071;-62
2022/01/08 09:47:43;;;;;;;15.72;5.75;;;;;;;3.13;86.38;148453.36;1703305;84;21117;-59
2022/01/08 09:50:11;;;;;;;15.23;5.50;;;;;;;3.17;86.50;148461.09;1703508;82;21365;-60
2022/01/08 09:52:38;;;;;;;12.53;6.85;;;;;;;3.19;86.60;148466.25;1703281;84;21022;-58
2022/01/08 09:55:06;;;;;;;15.13;6.03;;;;;;;3.21;86.56;148471.47;1703552;84;21357;-59
2022/01/08 09:57:33;;;;;;;11.65;5.40;;;;;;;3.22;86.55;148474.03;1703314;84;21081;-59
2022/01/08 09:59:59;;;;;;;12.95;5.90;;;;;;;3.26;86.92;148484.34;1703461;82;21451;-58
2022/01/08 10:02:26;;;;;;;8.78;5.12;;;;;;;3.30;86.80;148494.67;1703171;84;21002;-62
2022/01/08 10:04:53;;;;;;;12.90;5.58;;;;;;;3.33;86.26;148502.41;1703079;83;21086;-59
2022/01/08 10:07:25;;;;;;;10.72;5.35;;;;;;;3.32;85.89;148499.81;1672807;84;21041;-60
2022/01/08 10:10:17;;;;;;;12.75;5.65;;;;;;;3.30;85.95;148495.92;1703113;84;21568;-58
2022/01/08 10:12:54;;;;;;;12.85;5.83;;;;;;;3.29;86.21;148492.09;1702890;84;21448;-58
2022/01/08 10:18:33;;;;;;;13.15;5.75;;;;;;;3.28;86.53;148489.50;1702653;84;21428;-59
2022/01/08 10:21:14;;;;;;;11.45;5.72;;;;;;;3.27;86.39;148486.94;1703418;84;21058;-59
2022/01/08 10:24:04;;;;;;;14.65;6.08;;;;;;;3.25;86.58;148481.77;1703120;82;20982;-62
2022/01/08 10:26:35;;;;;;;14.35;5.80;;;;;;;3.20;87.12;148468.83;1703375;84;21778;-63
2022/01/08 10:29:14;;;;;;;10.25;5.67;;;;;;;3.17;87.07;148462.41;1703495;84;21435;-62
2022/01/08 10:31:44;;;;;;;17.15;5.95;;;;;;;3.14;87.09;148455.94;1702854;84;21030;-62
2022/01/08 10:34:22;;;;;;;17.35;6.17;;;;;;;3.07;87.24;148437.89;1703422;84;20960;-62
2022/01/08 10:37:03;;;;;;;13.25;6.15;;;;;;;3.04;87.75;148430.16;1719976;82;21529;-62
2022/01/08 10:39:36;;;;;;;13.98;6.08;;;;;;;3.01;88.04;148422.42;1738109;82;22174;-62
2022/01/08 10:42:12;;;;;;;10.65;6.10;;;;;;;2.97;88.65;148412.06;1737869;82;21013;-59
2022/01/08 10:44:40;;;;;;;14.60;7.00;;;;;;;2.94;89.00;148404.33;1737259;82;21103;-59
2022/01/08 10:47:18;;;;;;;14.98;6.78;;;;;;;2.93;89.08;148401.75;1737670;82;21513;-58
2022/01/08 10:50:00;;;;;;;14.50;7.45;;;;;;;2.91;89.49;148396.59;1709612;82;21096;-61
2022/01/08 10:52:28;;;;;;;17.45;7.25;;;;;;;2.86;90.05;148386.28;1737697;82;22443;-63
2022/01/08 10:55:00;;;;;;;14.00;7.60;;;;;;;2.84;90.55;148381.12;1738087;82;21047;-62
2022/01/08 10:57:35;;;;;;;14.05;6.10;;;;;;;2.83;90.61;148377.23;1737958;82;21063;-63
2022/01/08 11:00:06;;;;;;;12.43;6.93;;;;;;;2.82;90.75;148375.97;1737913;82;21013;-61
2022/01/08 11:02:34;;;;;;;16.80;6.80;;;;;;;2.82;90.98;148375.97;1737533;82;21720;-63
2022/01/08 11:05:06;;;;;;;15.03;6.70;;;;;;;2.81;91.53;148373.41;1738343;82;21550;-60
2022/01/08 11:07:34;;;;;;;15.55;5.75;;;;;;;2.77;91.59;148363.09;1738170;82;21603;-62
2022/01/08 11:10:07;;;;;;;11.40;6.03;;;;;;;2.74;92.04;148355.31;1738086;82;21024;-63
2022/01/08 11:12:40;;;;;;;17.40;6.65;;;;;;;2.75;92.35;148357.88;1738209;82;21088;-59
2022/01/08 11:17:49;;;;;;;18.42;6.70;;;;;;;2.73;92.19;148352.72;1738291;82;21683;-58
2022/01/08 11:20:19;;;;;;;15.03;6.58;;;;;;;2.71;92.50;148347.56;1738600;82;21389;-61
2022/01/08 11:22:49;;;;;;;12.68;5.95;;;;;;;2.72;92.62;148351.47;1738354;82;21108;-57
2022/01/08 11:25:34;;;;;;;13.98;7.12;;;;;;;2.72;92.73;148351.47;1737787;82;21888;-59
2022/01/08 11:28:10;;;;;;;12.30;5.80;;;;;;;2.71;92.70;148347.56;1709001;82;21047;-59
2022/01/08 11:30:49;;;;;;;12.23;5.90;;;;;;;2.69;92.64;148342.42;1737886;82;21928;-58
2022/01/08 11:33:26;;;;;;;11.83;5.42;;;;;;;2.68;92.99;148339.84;1738003;82;21144;-60
2022/01/08 11:35:50;;;;;;;13.68;6.37;;;;;;;2.68;93.16;148339.84;1736379;82;21007;-58
2022/01/08 11:38:19;;;;;;;14.15;5.42;;;;;;;2.68;93.22;148339.84;1725082;82;21424;-58
2022/01/08 11:40:52;;;;;;;13.28;5.60;;;;;;;2.68;93.26;148339.84;1724544;83;21860;-58
2022/01/08 11:43:21;;;;;;;15.50;6.10;;;;;;;2.67;93.07;148337.27;1724605;83;21386;-59
2022/01/08 11:45:56;;;;;;;14.03;5.33;;;;;;;2.64;93.31;148329.53;1724280;83;21106;-58
2022/01/08 11:48:37;;;;;;;15.28;5.70;;;;;;;2.63;93.44;148328.22;1724447;83;20928;-58
2022/01/08 11:51:06;;;;;;;12.78;5.25;;;;;;;2.62;93.49;148324.38;1724656;83;20968;-62
2022/01/08 11:53:51;;;;;;;14.65;5.37;;;;;;;2.58;93.86;148316.64;1724602;83;21007;-62
2022/01/08 11:56:29;;;;;;;11.93;5.45;;;;;;;2.53;93.83;148303.70;1726085;83;21819;-63